createdAt,value
2022-10-05T00:00:16.441Z,76.70
2022-10-05T00:02:59.829Z,77.20
2022-10-05T00:05:46.890Z,77.69
2022-10-05T00:08:34.496Z,78.37
2022-10-05T00:11:18.705Z,77.37
2022-10-05T00:14:20.174Z,76.90
2022-10-05T00:17:05.291Z,76.78
2022-10-05T00:19:52.875Z,76.61
2022-10-05T00:22:36.307Z,75.98
2022-10-05T00:25:22.422Z,76.00
2022-10-05T00:28:27.763Z,76.05
2022-10-05T00:31:25.213Z,76.87
2022-10-05T00:34:08.654Z,79.17
2022-10-05T00:36:52.059Z,78.83
2022-10-05T00:39:38.816Z,78.01
2022-10-05T00:42:34.290Z,78.40
2022-10-05T00:46:12.075Z,77.13
2022-10-05T00:49:46.126Z,78.27
2022-10-05T00:53:14.155Z,76.76
2022-10-05T00:56:06.926Z,77.61
2022-10-05T00:59:21.958Z,78.38
2022-10-05T01:02:25.649Z,78.25
2022-10-05T01:06:05.558Z,79.45
2022-10-05T01:08:51.995Z,79.01
2022-10-05T01:12:03.982Z,78.01
2022-10-05T01:14:53.560Z,79.06
2022-10-05T01:18:15.486Z,79.72
2022-10-05T01:21:20.524Z,79.72
2022-10-05T01:24:44.035Z,80.04
2022-10-05T01:27:52.302Z,79.57
2022-10-05T01:30:56.249Z,79.29
2022-10-05T01:34:13.114Z,79.69
2022-10-05T01:37:34.803Z,80.08
2022-10-05T01:40:43.846Z,79.75
2022-10-05T01:43:34.237Z,79.76
2022-10-05T01:46:36.841Z,79.77
2022-10-05T01:49:35.325Z,79.77
2022-10-05T01:53:04.092Z,79.96
2022-10-05T01:56:05.341Z,80.60
2022-10-05T01:59:18.061Z,79.37
2022-10-05T02:02:11.843Z,79.34
2022-10-05T02:05:16.938Z,79.02
2022-10-05T02:08:08.395Z,80.31
2022-10-05T02:11:09.178Z,79.78
2022-10-05T02:14:08.122Z,80.13
2022-10-05T02:16:56.306Z,79.37
2022-10-05T02:19:51.532Z,77.90
2022-10-05T02:23:02.350Z,79.42
2022-10-05T02:25:49.589Z,78.46
2022-10-05T02:28:53.818Z,79.92
2022-10-05T02:31:59.087Z,76.93
2022-10-05T02:34:44.148Z,77.20
2022-10-05T02:37:57.459Z,76.89
2022-10-05T02:40:57.395Z,76.39
2022-10-05T02:43:59.990Z,75.52
2022-10-05T02:47:05.849Z,77.09
2022-10-05T02:50:49.466Z,76.49
2022-10-05T02:54:38.579Z,75.94
2022-10-05T02:57:39.045Z,76.27
2022-10-05T03:00:26.058Z,74.88
2022-10-05T03:03:33.400Z,75.85
2022-10-05T03:06:32.958Z,75.64
2022-10-05T03:09:23.873Z,77.59
2022-10-05T03:12:59.542Z,78.23
2022-10-05T03:16:40.537Z,79.20
2022-10-05T03:19:55.914Z,79.43
2022-10-05T03:23:00.097Z,80.96
2022-10-05T03:26:37.456Z,79.76
2022-10-05T03:29:30.557Z,80.55
2022-10-05T03:32:41.831Z,79.97
2022-10-05T03:35:49.369Z,79.44
2022-10-05T03:39:07.378Z,80.87
2022-10-05T03:41:59.528Z,81.02
2022-10-05T03:45:04.944Z,81.65
2022-10-05T03:48:20.162Z,81.04
2022-10-05T03:51:24.882Z,81.28
2022-10-05T03:54:53.042Z,81.36
2022-10-05T03:57:40.539Z,80.76
2022-10-05T04:00:25.779Z,80.94
2022-10-05T04:03:41.578Z,81.23
2022-10-05T04:06:32.610Z,82.50
2022-10-05T04:09:39.613Z,82.25
2022-10-05T04:12:32.493Z,81.38
2022-10-05T04:16:14.162Z,81.79
2022-10-05T04:19:26.157Z,82.79
2022-10-05T04:22:25.653Z,82.13
2022-10-05T04:25:28.300Z,81.96
2022-10-05T04:28:27.045Z,81.54
2022-10-05T04:32:05.986Z,81.42
2022-10-05T04:35:42.629Z,81.13
2022-10-05T04:38:51.585Z,81.65
2022-10-05T04:42:03.305Z,81.51
2022-10-05T04:45:22.465Z,80.75
2022-10-05T04:48:40.770Z,81.01
2022-10-05T04:51:33.614Z,81.63
2022-10-05T04:54:29.926Z,80.82
2022-10-05T04:57:24.732Z,80.46
2022-10-05T05:00:22.180Z,80.11
2022-10-05T05:03:39.213Z,79.86
2022-10-05T05:06:49.473Z,80.02
2022-10-05T05:10:06.457Z,80.58
2022-10-05T05:13:27.313Z,82.44
2022-10-05T05:16:18.319Z,82.04
2022-10-05T05:19:39.022Z,81.32
2022-10-05T05:23:02.658Z,82.81
2022-10-05T05:26:17.054Z,81.92
2022-10-05T05:29:37.154Z,82.04
2022-10-05T05:32:35.843Z,82.56
2022-10-05T05:36:04.479Z,82.54
2022-10-05T05:39:12.266Z,81.58
2022-10-05T05:42:02.727Z,80.95
2022-10-05T05:44:53.542Z,81.85
2022-10-05T05:47:52.165Z,81.98
2022-10-05T05:51:05.663Z,81.09
2022-10-05T05:54:20.686Z,81.50
2022-10-05T05:57:36.119Z,82.30
2022-10-05T06:00:36.098Z,82.05
2022-10-05T06:03:46.877Z,81.90
2022-10-05T06:06:36.357Z,81.07
2022-10-05T06:09:40.516Z,80.98
2022-10-05T06:12:49.567Z,81.77
2022-10-05T06:16:01.705Z,82.02
2022-10-05T06:18:56.658Z,81.61
2022-10-05T06:22:01.131Z,80.97
2022-10-05T06:25:25.181Z,80.79
2022-10-05T06:28:16.172Z,80.43
2022-10-05T06:31:42.342Z,80.80
2022-10-05T06:34:45.426Z,80.70
2022-10-05T06:38:01.680Z,81.55
2022-10-05T06:41:19.374Z,81.07
2022-10-05T06:44:19.903Z,81.99
2022-10-05T06:47:46.155Z,81.64
2022-10-05T06:51:31.373Z,80.76
2022-10-05T06:55:22.643Z,80.44
2022-10-05T06:58:27.828Z,80.14
2022-10-05T07:01:53.750Z,79.82
2022-10-05T07:05:01.456Z,80.74
2022-10-05T07:08:00.444Z,79.97
2022-10-05T07:11:20.066Z,79.40
2022-10-05T07:14:22.773Z,79.08
2022-10-05T07:17:18.297Z,79.79
2022-10-05T07:20:26.422Z,78.65
2022-10-05T07:24:02.092Z,78.84
2022-10-05T07:27:23.771Z,78.88
2022-10-05T07:30:15.205Z,78.86
2022-10-05T07:33:32.918Z,78.86
2022-10-05T07:37:06.163Z,78.04
2022-10-05T07:40:12.202Z,77.89
2022-10-05T07:43:11.695Z,78.16
2022-10-05T07:46:08.594Z,78.45
2022-10-05T07:49:15.716Z,78.81
2022-10-05T07:52:11.932Z,78.10
2022-10-05T07:55:23.244Z,77.62
2022-10-05T07:58:31.426Z,77.14
2022-10-05T08:01:24.487Z,76.45
2022-10-05T08:04:22.899Z,76.77
2022-10-05T08:07:15.824Z,76.03
2022-10-05T08:10:34.561Z,76.18
2022-10-05T08:13:36.661Z,75.54
2022-10-05T08:16:23.359Z,75.69
2022-10-05T08:19:29.509Z,74.58
2022-10-05T08:22:25.244Z,75.12
2022-10-05T08:25:26.570Z,73.67
2022-10-05T08:28:37.012Z,73.93
2022-10-05T08:31:27.415Z,73.78
2022-10-05T08:35:08.154Z,74.02
2022-10-05T08:37:53.082Z,73.54
2022-10-05T08:41:07.388Z,73.49
2022-10-05T08:44:05.334Z,73.86
2022-10-05T08:47:07.088Z,73.90
2022-10-05T08:50:18.003Z,72.56
2022-10-05T08:53:56.744Z,71.22
2022-10-05T08:57:10.556Z,70.80
2022-10-05T09:00:10.795Z,69.76
2022-10-05T09:03:34.485Z,69.98
2022-10-05T09:06:47.457Z,70.20
2022-10-05T09:10:23.862Z,69.54
2022-10-05T09:13:34.778Z,70.27
2022-10-05T09:17:01.572Z,69.95
2022-10-05T09:20:16.853Z,69.94
2022-10-05T09:23:19.524Z,70.14
2022-10-05T09:26:40.668Z,69.39
2022-10-05T09:29:42.480Z,69.50
2022-10-05T09:33:07.813Z,69.32
2022-10-05T09:36:15.736Z,69.39
2022-10-05T09:39:30.070Z,68.44
2022-10-05T09:42:43.924Z,68.84
2022-10-05T09:46:14.160Z,67.60
2022-10-05T09:49:36.111Z,67.90
2022-10-05T09:52:50.598Z,67.83
2022-10-05T09:56:13.065Z,67.23
2022-10-05T09:59:33.166Z,67.80
2022-10-05T10:02:34.732Z,68.74
2022-10-05T10:05:54.312Z,69.36
2022-10-05T10:09:16.286Z,68.92
2022-10-05T10:12:54.167Z,67.72
2022-10-05T10:15:49.573Z,67.00
2022-10-05T10:18:48.073Z,67.83
2022-10-05T10:22:10.077Z,66.90
2022-10-05T10:25:42.594Z,67.70
2022-10-05T10:29:01.880Z,67.14
2022-10-05T10:32:19.278Z,67.93
2022-10-05T10:35:31.805Z,67.03
2022-10-05T10:38:47.678Z,68.66
2022-10-05T10:42:06.151Z,68.50
2022-10-05T10:45:03.383Z,68.32
2022-10-05T10:48:11.043Z,68.00
2022-10-05T10:51:27.303Z,68.84
2022-10-05T10:55:01.948Z,69.07
2022-10-05T10:58:39.896Z,68.63
2022-10-05T11:01:50.169Z,67.28
2022-10-05T11:04:56.326Z,67.65
2022-10-05T11:08:28.973Z,67.13
2022-10-05T11:11:36.727Z,67.58
2022-10-05T11:15:06.935Z,66.75
2022-10-05T11:17:58.313Z,66.82
2022-10-05T11:21:23.099Z,66.99
2022-10-05T11:24:39.044Z,66.47
2022-10-05T11:27:28.352Z,65.86
2022-10-05T11:31:00.267Z,63.74
2022-10-05T11:33:55.143Z,64.49
2022-10-05T11:37:06.284Z,63.03
2022-10-05T11:40:22.689Z,64.04
2022-10-05T11:43:18.065Z,62.65
2022-10-05T11:46:16.662Z,62.78
2022-10-05T11:49:53.663Z,60.61
2022-10-05T11:52:56.510Z,60.54
2022-10-05T11:56:05.997Z,60.60
2022-10-05T11:59:11.927Z,61.73
2022-10-05T12:02:04.331Z,61.36
2022-10-05T12:05:11.637Z,61.24
2022-10-05T12:08:41.818Z,62.35
2022-10-05T12:12:19.325Z,61.43
2022-10-05T12:15:24.071Z,62.36
2022-10-05T12:18:16.891Z,61.93
2022-10-05T12:21:27.720Z,62.46
2022-10-05T12:24:35.903Z,60.89
2022-10-05T12:27:26.957Z,59.91
2022-10-05T12:30:36.422Z,59.95
2022-10-05T12:33:41.335Z,59.26
2022-10-05T12:37:03.061Z,58.71
2022-10-05T12:40:29.297Z,57.50
2022-10-05T12:44:06.961Z,56.09
2022-10-05T12:47:12.407Z,56.01
2022-10-05T12:50:24.723Z,55.28
2022-10-05T12:53:28.805Z,57.40
2022-10-05T12:56:36.819Z,55.21
2022-10-05T12:59:41.222Z,55.72
2022-10-05T13:02:46.712Z,55.81
2022-10-05T13:05:50.874Z,55.70
2022-10-05T13:09:01.590Z,56.54
2022-10-05T13:11:55.956Z,56.54
2022-10-05T13:15:04.407Z,56.75
2022-10-05T13:18:14.813Z,57.45
2022-10-05T13:21:12.568Z,56.79
2022-10-05T13:24:22.172Z,57.22
2022-10-05T13:27:23.647Z,56.69
2022-10-05T13:30:20.561Z,56.62
2022-10-05T13:33:18.083Z,55.88
2022-10-05T13:36:31.366Z,55.43
2022-10-05T13:39:35.764Z,54.24
2022-10-05T13:42:48.489Z,54.13
2022-10-05T13:45:52.784Z,53.38
2022-10-05T13:49:20.181Z,54.27
2022-10-05T13:52:18.822Z,54.30
2022-10-05T13:55:36.751Z,55.42
2022-10-05T13:58:40.692Z,54.73
2022-10-05T14:01:46.430Z,54.75
2022-10-05T14:04:46.992Z,55.34
2022-10-05T14:07:38.877Z,54.56
2022-10-05T14:10:34.182Z,55.37
2022-10-05T14:13:29.304Z,55.38
2022-10-05T14:16:12.806Z,56.62
2022-10-05T14:18:59.657Z,55.24
2022-10-05T14:22:11.545Z,55.63
2022-10-05T14:25:10.161Z,55.52
2022-10-05T14:28:02.034Z,56.11
2022-10-05T14:30:59.310Z,56.31
2022-10-05T14:33:42.773Z,55.93
2022-10-05T14:36:36.799Z,56.19
2022-10-05T14:39:27.076Z,55.66
2022-10-05T14:42:26.727Z,56.12
2022-10-05T14:45:18.699Z,56.51
2022-10-05T14:48:06.233Z,56.49
2022-10-05T14:50:55.559Z,56.95
2022-10-05T14:53:55.967Z,56.60
2022-10-05T14:57:10.068Z,57.04
2022-10-05T15:00:16.551Z,56.23
2022-10-05T15:03:05.498Z,57.50
2022-10-05T15:06:01.761Z,56.63
2022-10-05T15:09:40.970Z,57.05
2022-10-05T15:12:38.359Z,56.66
2022-10-05T15:15:37.218Z,56.44
2022-10-05T15:18:56.886Z,56.79
2022-10-05T15:22:14.166Z,56.69
2022-10-05T15:25:51.234Z,56.92
2022-10-05T15:28:51.642Z,57.06
2022-10-05T15:32:14.693Z,56.92
2022-10-05T15:35:29.012Z,57.41
2022-10-05T15:38:24.493Z,58.24
2022-10-05T15:41:30.111Z,58.46
2022-10-05T15:44:57.745Z,58.17
2022-10-05T15:47:56.067Z,58.94
2022-10-05T15:51:10.763Z,58.58
2022-10-05T15:54:43.300Z,59.35
2022-10-05T15:57:51.923Z,60.71
2022-10-05T16:00:48.024Z,59.44
2022-10-05T16:04:18.147Z,60.61
2022-10-05T16:07:22.133Z,60.56
2022-10-05T16:10:24.191Z,60.62
2022-10-05T16:13:33.525Z,60.97
2022-10-05T16:16:45.571Z,61.67
2022-10-05T16:20:42.346Z,61.76
2022-10-05T16:23:55.606Z,61.31
2022-10-05T16:26:51.027Z,62.44
2022-10-05T16:30:11.734Z,62.26
2022-10-05T16:33:21.047Z,62.16
2022-10-05T16:36:36.384Z,62.37
2022-10-05T16:39:57.353Z,62.68
2022-10-05T16:42:52.376Z,61.94
2022-10-05T16:46:21.903Z,62.93
2022-10-05T16:49:53.709Z,63.81
2022-10-05T16:52:43.823Z,63.47
2022-10-05T16:55:37.015Z,63.51
2022-10-05T16:59:00.612Z,63.77
2022-10-05T17:02:00.758Z,64.95
2022-10-05T17:05:14.333Z,64.77
2022-10-05T17:28:41.123Z,65.08
2022-10-05T17:39:23.725Z,65.35
2022-10-05T17:52:01.192Z,64.85
2022-10-05T17:55:03.021Z,65.24
2022-10-05T18:01:28.344Z,65.57
2022-10-05T18:13:16.893Z,68.24
2022-10-05T18:17:25.384Z,68.62
2022-10-05T18:21:34.913Z,69.83
2022-10-05T18:25:25.577Z,68.86
2022-10-05T18:28:40.824Z,68.59
2022-10-05T18:31:40.156Z,68.00
2022-10-05T18:34:38.596Z,71.41
2022-10-05T18:37:46.506Z,69.52
2022-10-05T18:48:08.057Z,74.63
2022-10-05T18:51:10.349Z,76.05
2022-10-05T18:54:27.153Z,75.61
2022-10-05T18:57:36.199Z,75.00
2022-10-05T19:00:25.225Z,74.98
2022-10-05T19:03:23.806Z,74.88
2022-10-05T19:06:37.943Z,74.29
2022-10-05T19:10:03.863Z,74.31
2022-10-05T19:13:26.229Z,73.99
2022-10-05T19:16:58.091Z,74.33
2022-10-05T19:20:17.344Z,74.62
2022-10-05T19:23:52.033Z,73.93
2022-10-05T19:27:04.058Z,74.71
2022-10-05T19:30:24.010Z,74.77
2022-10-05T19:33:49.575Z,74.95
2022-10-05T19:36:48.994Z,75.00
2022-10-05T19:39:41.181Z,74.94
2022-10-05T19:42:47.139Z,74.26
2022-10-05T19:45:47.492Z,75.22
2022-10-05T19:48:53.706Z,75.71
2022-10-05T19:51:50.378Z,75.25
2022-10-05T19:54:34.935Z,75.01
2022-10-05T19:57:18.675Z,76.83
2022-10-05T20:00:02.138Z,76.55
2022-10-05T20:02:50.211Z,76.50
2022-10-05T20:05:34.826Z,75.45
2022-10-05T20:08:20.885Z,75.50
2022-10-05T20:11:10.621Z,75.06
2022-10-05T20:13:54.925Z,75.18
2022-10-05T20:16:56.793Z,76.20
2022-10-05T20:19:58.903Z,75.72
2022-10-05T20:22:48.242Z,76.05
2022-10-05T20:25:32.293Z,76.10
2022-10-05T20:28:31.077Z,76.96
2022-10-05T20:31:15.127Z,76.74
2022-10-05T20:33:59.478Z,77.29
2022-10-05T20:36:44.611Z,76.67
2022-10-05T20:39:28.168Z,76.66
2022-10-05T20:42:12.561Z,77.06
2022-10-05T20:44:57.866Z,76.89
2022-10-05T20:47:42.219Z,76.81
2022-10-05T20:50:27.988Z,75.77
2022-10-05T20:53:12.172Z,76.99
2022-10-05T20:56:04.628Z,77.23
2022-10-05T20:58:48.112Z,76.95
2022-10-05T21:01:32.002Z,77.31
2022-10-05T21:04:22.670Z,77.54
2022-10-05T21:07:06.420Z,76.74
2022-10-05T21:09:50.898Z,76.67
2022-10-05T21:12:34.723Z,77.17
2022-10-05T21:15:18.139Z,77.47
2022-10-05T21:18:01.502Z,77.63
2022-10-05T21:20:48.631Z,77.64
2022-10-05T21:23:34.636Z,77.78
2022-10-05T21:26:18.039Z,77.98
2022-10-05T21:29:02.438Z,77.74
2022-10-05T21:31:45.957Z,77.73
2022-10-05T21:34:29.851Z,77.62
2022-10-05T21:37:14.101Z,78.32
2022-10-05T21:39:57.473Z,78.17
2022-10-05T21:42:40.855Z,77.70
2022-10-05T21:45:24.313Z,77.24
2022-10-05T21:48:08.202Z,76.90
2022-10-05T21:50:51.668Z,77.16
2022-10-05T21:53:41.579Z,77.63
2022-10-05T21:56:32.877Z,77.50
2022-10-05T21:59:22.857Z,78.44
2022-10-05T22:02:06.272Z,77.74
2022-10-05T22:04:49.823Z,78.60
2022-10-05T22:07:33.191Z,77.83
2022-10-05T22:10:16.678Z,78.10
2022-10-05T22:13:04.285Z,79.52
2022-10-05T22:15:47.715Z,79.48
2022-10-05T22:18:31.571Z,78.35
2022-10-05T22:21:16.610Z,78.54
2022-10-05T22:24:00.331Z,78.91
2022-10-05T22:26:48.893Z,78.33
2022-10-05T22:29:32.284Z,79.45
2022-10-05T22:32:15.698Z,78.61
2022-10-05T22:34:59.725Z,80.67
2022-10-05T22:37:44.687Z,79.00
2022-10-05T22:40:28.544Z,79.32
2022-10-05T22:43:12.643Z,79.24
2022-10-05T22:45:56.328Z,79.32
2022-10-05T22:48:40.744Z,81.00
2022-10-05T22:51:24.479Z,79.37
2022-10-05T22:54:07.948Z,80.79
2022-10-05T22:56:51.332Z,80.42
2022-10-05T22:59:34.902Z,80.24
2022-10-05T23:02:19.866Z,80.39
2022-10-05T23:05:04.751Z,80.38
